sensor_id;sensor_type;location;lat;lon;timestamp;P1;durP1;ratioP1;P2;durP2;ratioP2
11024;SDS011;22890;51.820;8.682;2023-07-22T00:00:39;12.33;;;9.70;;
11024;SDS011;22890;51.820;8.682;2023-07-22T00:03:05;11.87;;;9.00;;
11024;SDS011;22890;51.820;8.682;2023-07-22T00:05:32;9.43;;;7.50;;
11024;SDS011;22890;51.820;8.682;2023-07-22T00:07:59;14.13;;;9.33;;
11024;SDS011;22890;51.820;8.682;2023-07-22T00:10:26;14.53;;;8.57;;
11024;SDS011;22890;51.820;8.682;2023-07-22T00:12:53;13.40;;;9.23;;
11024;SDS011;22890;51.820;8.682;2023-07-22T00:15:20;13.57;;;9.13;;
11024;SDS011;22890;51.820;8.682;2023-07-22T00:17:48;13.83;;;9.00;;
11024;SDS011;22890;51.820;8.682;2023-07-22T00:20:15;10.63;;;8.30;;
11024;SDS011;22890;51.820;8.682;2023-07-22T00:22:43;13.70;;;8.13;;
11024;SDS011;22890;51.820;8.682;2023-07-22T00:25:10;15.13;;;9.27;;
11024;SDS011;22890;51.820;8.682;2023-07-22T00:27:38;11.60;;;8.53;;
11024;SDS011;22890;51.820;8.682;2023-07-22T00:30:07;20.33;;;9.37;;
11024;SDS011;22890;51.820;8.682;2023-07-22T00:32:34;13.13;;;9.10;;
11024;SDS011;22890;51.820;8.682;2023-07-22T00:35:04;12.63;;;8.20;;
11024;SDS011;22890;51.820;8.682;2023-07-22T00:37:31;12.47;;;9.57;;
11024;SDS011;22890;51.820;8.682;2023-07-22T00:39:59;17.00;;;9.87;;
11024;SDS011;22890;51.820;8.682;2023-07-22T00:42:27;15.47;;;9.53;;
11024;SDS011;22890;51.820;8.682;2023-07-22T00:44:54;12.37;;;9.03;;
11024;SDS011;22890;51.820;8.682;2023-07-22T00:47:20;13.30;;;10.20;;
11024;SDS011;22890;51.820;8.682;2023-07-22T00:49:47;12.90;;;9.57;;
11024;SDS011;22890;51.820;8.682;2023-07-22T00:52:15;12.33;;;9.47;;
11024;SDS011;22890;51.820;8.682;2023-07-22T00:54:43;14.87;;;8.30;;
11024;SDS011;22890;51.820;8.682;2023-07-22T00:57:11;16.37;;;8.40;;
11024;SDS011;22890;51.820;8.682;2023-07-22T00:59:39;15.83;;;10.63;;
11024;SDS011;22890;51.820;8.682;2023-07-22T01:02:06;16.87;;;9.63;;
11024;SDS011;22890;51.820;8.682;2023-07-22T01:04:33;14.73;;;9.97;;
11024;SDS011;22890;51.820;8.682;2023-07-22T01:07:01;14.97;;;9.60;;
11024;SDS011;22890;51.820;8.682;2023-07-22T01:09:34;14.43;;;8.57;;
11024;SDS011;22890;51.820;8.682;2023-07-22T01:12:02;11.87;;;8.60;;
11024;SDS011;22890;51.820;8.682;2023-07-22T01:14:29;13.57;;;8.43;;
11024;SDS011;22890;51.820;8.682;2023-07-22T01:16:56;15.27;;;9.03;;
11024;SDS011;22890;51.820;8.682;2023-07-22T01:19:23;13.47;;;8.77;;
11024;SDS011;22890;51.820;8.682;2023-07-22T01:21:50;16.10;;;8.53;;
11024;SDS011;22890;51.820;8.682;2023-07-22T01:24:18;11.77;;;8.00;;
11024;SDS011;22890;51.820;8.682;2023-07-22T01:26:45;10.40;;;7.20;;
11024;SDS011;22890;51.820;8.682;2023-07-22T01:29:13;12.63;;;8.13;;
11024;SDS011;22890;51.820;8.682;2023-07-22T01:31:40;12.43;;;7.83;;
11024;SDS011;22890;51.820;8.682;2023-07-22T01:34:07;14.33;;;7.67;;
11024;SDS011;22890;51.820;8.682;2023-07-22T01:36:33;11.97;;;8.53;;
11024;SDS011;22890;51.820;8.682;2023-07-22T01:39:00;11.10;;;7.63;;
11024;SDS011;22890;51.820;8.682;2023-07-22T01:41:27;13.80;;;8.00;;
11024;SDS011;22890;51.820;8.682;2023-07-22T01:43:54;14.57;;;9.37;;
11024;SDS011;22890;51.820;8.682;2023-07-22T01:46:20;15.77;;;8.10;;
11024;SDS011;22890;51.820;8.682;2023-07-22T01:48:47;12.37;;;8.60;;
11024;SDS011;22890;51.820;8.682;2023-07-22T01:51:14;15.80;;;9.03;;
11024;SDS011;22890;51.820;8.682;2023-07-22T01:53:42;16.63;;;9.23;;
11024;SDS011;22890;51.820;8.682;2023-07-22T01:56:09;15.27;;;7.97;;
11024;SDS011;22890;51.820;8.682;2023-07-22T01:58:35;15.70;;;8.67;;
11024;SDS011;22890;51.820;8.682;2023-07-22T02:01:02;12.67;;;8.43;;
11024;SDS011;22890;51.820;8.682;2023-07-22T02:03:29;14.57;;;8.47;;
11024;SDS011;22890;51.820;8.682;2023-07-22T02:06:02;12.23;;;7.77;;
11024;SDS011;22890;51.820;8.682;2023-07-22T02:08:30;13.83;;;8.40;;
11024;SDS011;22890;51.820;8.682;2023-07-22T02:11:01;19.53;;;8.07;;
11024;SDS011;22890;51.820;8.682;2023-07-22T02:13:30;21.10;;;9.67;;
11024;SDS011;22890;51.820;8.682;2023-07-22T02:15:57;12.80;;;8.80;;
11024;SDS011;22890;51.820;8.682;2023-07-22T02:18:25;16.40;;;9.20;;
11024;SDS011;22890;51.820;8.682;2023-07-22T02:20:52;15.33;;;9.00;;
11024;SDS011;22890;51.820;8.682;2023-07-22T02:23:19;15.50;;;8.73;;
11024;SDS011;22890;51.820;8.682;2023-07-22T02:25:49;21.50;;;8.70;;
11024;SDS011;22890;51.820;8.682;2023-07-22T02:28:17;14.87;;;9.40;;
11024;SDS011;22890;51.820;8.682;2023-07-22T02:30:48;17.90;;;9.80;;
11024;SDS011;22890;51.820;8.682;2023-07-22T02:33:15;17.67;;;9.40;;
11024;SDS011;22890;51.820;8.682;2023-07-22T02:35:42;17.70;;;9.50;;
11024;SDS011;22890;51.820;8.682;2023-07-22T02:38:09;18.17;;;10.13;;
11024;SDS011;22890;51.820;8.682;2023-07-22T02:40:37;12.90;;;9.13;;
11024;SDS011;22890;51.820;8.682;2023-07-22T02:43:04;21.07;;;8.90;;
11024;SDS011;22890;51.820;8.682;2023-07-22T02:45:33;17.40;;;9.00;;
11024;SDS011;22890;51.820;8.682;2023-07-22T02:48:00;14.17;;;9.37;;
11024;SDS011;22890;51.820;8.682;2023-07-22T02:50:27;15.00;;;9.33;;
11024;SDS011;22890;51.820;8.682;2023-07-22T02:52:54;15.63;;;8.83;;
11024;SDS011;22890;51.820;8.682;2023-07-22T02:55:21;20.27;;;8.30;;
11024;SDS011;22890;51.820;8.682;2023-07-22T02:57:49;14.77;;;8.83;;
11024;SDS011;22890;51.820;8.682;2023-07-22T03:00:18;19.33;;;9.13;;
11024;SDS011;22890;51.820;8.682;2023-07-22T03:02:50;15.67;;;8.10;;
11024;SDS011;22890;51.820;8.682;2023-07-22T03:05:19;22.60;;;9.43;;
11024;SDS011;22890;51.820;8.682;2023-07-22T03:07:46;17.30;;;8.77;;
11024;SDS011;22890;51.820;8.682;2023-07-22T03:10:12;20.77;;;9.70;;
11024;SDS011;22890;51.820;8.682;2023-07-22T03:12:39;17.47;;;9.27;;
11024;SDS011;22890;51.820;8.682;2023-07-22T03:15:06;13.30;;;9.13;;
11024;SDS011;22890;51.820;8.682;2023-07-22T03:17:35;16.53;;;8.77;;
11024;SDS011;22890;51.820;8.682;2023-07-22T03:20:03;13.43;;;8.80;;
11024;SDS011;22890;51.820;8.682;2023-07-22T03:22:56;13.13;;;8.07;;
11024;SDS011;22890;51.820;8.682;2023-07-22T03:25:23;16.47;;;8.13;;
11024;SDS011;22890;51.820;8.682;2023-07-22T03:27:50;13.10;;;8.40;;
11024;SDS011;22890;51.820;8.682;2023-07-22T03:30:17;17.03;;;8.77;;
11024;SDS011;22890;51.820;8.682;2023-07-22T03:32:47;20.00;;;9.00;;
11024;SDS011;22890;51.820;8.682;2023-07-22T03:35:16;15.70;;;8.57;;
11024;SDS011;22890;51.820;8.682;2023-07-22T03:37:45;21.53;;;8.47;;
11024;SDS011;22890;51.820;8.682;2023-07-22T03:40:12;19.90;;;9.27;;
11024;SDS011;22890;51.820;8.682;2023-07-22T03:42:49;13.60;;;8.30;;
11024;SDS011;22890;51.820;8.682;2023-07-22T03:45:17;18.00;;;8.57;;
11024;SDS011;22890;51.820;8.682;2023-07-22T03:47:45;16.50;;;8.10;;
11024;SDS011;22890;51.820;8.682;2023-07-22T03:50:13;16.73;;;9.03;;
11024;SDS011;22890;51.820;8.682;2023-07-22T03:52:39;22.90;;;9.47;;
11024;SDS011;22890;51.820;8.682;2023-07-22T03:55:06;17.23;;;8.63;;
11024;SDS011;22890;51.820;8.682;2023-07-22T03:57:34;20.07;;;8.83;;
11024;SDS011;22890;51.820;8.682;2023-07-22T04:00:02;13.77;;;8.50;;
11024;SDS011;22890;51.820;8.682;2023-07-22T04:02:39;26.47;;;8.90;;
11024;SDS011;22890;51.820;8.682;2023-07-22T04:05:06;17.70;;;8.77;;
11024;SDS011;22890;51.820;8.682;2023-07-22T04:07:34;15.93;;;7.70;;
11024;SDS011;22890;51.820;8.682;2023-07-22T04:10:01;25.20;;;8.87;;
11024;SDS011;22890;51.820;8.682;2023-07-22T04:12:28;14.30;;;7.60;;
11024;SDS011;22890;51.820;8.682;2023-07-22T04:14:56;20.40;;;8.87;;
11024;SDS011;22890;51.820;8.682;2023-07-22T04:17:22;22.07;;;8.70;;
11024;SDS011;22890;51.820;8.682;2023-07-22T04:19:50;20.53;;;8.43;;
11024;SDS011;22890;51.820;8.682;2023-07-22T04:22:18;16.37;;;7.67;;
11024;SDS011;22890;51.820;8.682;2023-07-22T04:24:46;17.17;;;8.93;;
11024;SDS011;22890;51.820;8.682;2023-07-22T04:27:15;19.70;;;8.73;;
11024;SDS011;22890;51.820;8.682;2023-07-22T04:29:42;17.07;;;7.87;;
11024;SDS011;22890;51.820;8.682;2023-07-22T04:32:09;22.00;;;9.47;;
11024;SDS011;22890;51.820;8.682;2023-07-22T04:34:36;21.80;;;10.23;;
11024;SDS011;22890;51.820;8.682;2023-07-22T04:37:03;19.23;;;8.30;;
11024;SDS011;22890;51.820;8.682;2023-07-22T04:39:29;19.73;;;8.50;;
11024;SDS011;22890;51.820;8.682;2023-07-22T04:41:56;28.10;;;8.53;;
11024;SDS011;22890;51.820;8.682;2023-07-22T04:44:23;27.57;;;8.60;;
11024;SDS011;22890;51.820;8.682;2023-07-22T04:46:50;24.57;;;9.00;;
11024;SDS011;22890;51.820;8.682;2023-07-22T04:49:17;22.70;;;8.67;;
11024;SDS011;22890;51.820;8.682;2023-07-22T04:51:45;23.17;;;8.73;;
11024;SDS011;22890;51.820;8.682;2023-07-22T04:54:13;16.60;;;8.13;;
11024;SDS011;22890;51.820;8.682;2023-07-22T04:56:41;24.83;;;8.47;;
11024;SDS011;22890;51.820;8.682;2023-07-22T04:59:08;16.10;;;8.20;;
11024;SDS011;22890;51.820;8.682;2023-07-22T05:01:35;19.67;;;9.13;;
11024;SDS011;22890;51.820;8.682;2023-07-22T05:04:02;20.57;;;8.63;;
11024;SDS011;22890;51.820;8.682;2023-07-22T05:06:31;15.80;;;8.53;;
11024;SDS011;22890;51.820;8.682;2023-07-22T05:08:58;14.80;;;8.93;;
11024;SDS011;22890;51.820;8.682;2023-07-22T05:11:25;11.93;;;8.93;;
11024;SDS011;22890;51.820;8.682;2023-07-22T05:13:51;14.30;;;8.77;;
11024;SDS011;22890;51.820;8.682;2023-07-22T05:16:18;15.97;;;8.67;;
11024;SDS011;22890;51.820;8.682;2023-07-22T05:18:47;15.13;;;9.20;;
11024;SDS011;22890;51.820;8.682;2023-07-22T05:21:14;15.57;;;8.97;;
11024;SDS011;22890;51.820;8.682;2023-07-22T05:23:41;12.30;;;8.30;;
11024;SDS011;22890;51.820;8.682;2023-07-22T05:26:07;13.83;;;8.47;;
11024;SDS011;22890;51.820;8.682;2023-07-22T05:28:34;20.63;;;9.60;;
11024;SDS011;22890;51.820;8.682;2023-07-22T05:31:01;14.33;;;8.77;;
11024;SDS011;22890;51.820;8.682;2023-07-22T05:33:28;14.47;;;8.97;;
11024;SDS011;22890;51.820;8.682;2023-07-22T05:35:54;13.63;;;9.23;;
11024;SDS011;22890;51.820;8.682;2023-07-22T05:38:21;15.13;;;8.97;;
11024;SDS011;22890;51.820;8.682;2023-07-22T05:40:48;13.63;;;9.10;;
11024;SDS011;22890;51.820;8.682;2023-07-22T05:43:14;15.63;;;9.57;;
11024;SDS011;22890;51.820;8.682;2023-07-22T05:45:41;17.87;;;9.30;;
11024;SDS011;22890;51.820;8.682;2023-07-22T05:48:08;14.40;;;9.37;;
11024;SDS011;22890;51.820;8.682;2023-07-22T05:50:35;19.33;;;9.87;;
11024;SDS011;22890;51.820;8.682;2023-07-22T05:53:02;15.10;;;9.33;;
11024;SDS011;22890;51.820;8.682;2023-07-22T05:55:29;14.33;;;9.13;;
11024;SDS011;22890;51.820;8.682;2023-07-22T05:57:56;14.40;;;9.07;;
11024;SDS011;22890;51.820;8.682;2023-07-22T06:00:23;13.43;;;8.57;;
11024;SDS011;22890;51.820;8.682;2023-07-22T06:02:49;14.80;;;8.77;;
11024;SDS011;22890;51.820;8.682;2023-07-22T06:05:16;15.07;;;9.37;;
11024;SDS011;22890;51.820;8.682;2023-07-22T06:07:43;15.60;;;9.13;;
11024;SDS011;22890;51.820;8.682;2023-07-22T06:10:10;14.00;;;8.60;;
11024;SDS011;22890;51.820;8.682;2023-07-22T06:12:37;14.37;;;9.87;;
11024;SDS011;22890;51.820;8.682;2023-07-22T06:15:05;13.73;;;8.67;;
11024;SDS011;22890;51.820;8.682;2023-07-22T06:17:32;13.47;;;8.93;;
11024;SDS011;22890;51.820;8.682;2023-07-22T06:19:59;14.10;;;8.70;;
11024;SDS011;22890;51.820;8.682;2023-07-22T06:22:26;13.57;;;8.10;;
11024;SDS011;22890;51.820;8.682;2023-07-22T06:24:53;13.60;;;8.60;;
11024;SDS011;22890;51.820;8.682;2023-07-22T06:27:19;15.10;;;9.03;;
11024;SDS011;22890;51.820;8.682;2023-07-22T06:29:46;13.47;;;8.43;;
11024;SDS011;22890;51.820;8.682;2023-07-22T06:32:13;14.70;;;9.37;;
11024;SDS011;22890;51.820;8.682;2023-07-22T06:34:40;14.37;;;9.37;;
11024;SDS011;22890;51.820;8.682;2023-07-22T06:37:06;12.67;;;9.00;;
11024;SDS011;22890;51.820;8.682;2023-07-22T06:39:33;14.30;;;8.93;;
11024;SDS011;22890;51.820;8.682;2023-07-22T06:42:00;20.17;;;9.27;;
11024;SDS011;22890;51.820;8.682;2023-07-22T06:44:27;13.87;;;8.50;;
11024;SDS011;22890;51.820;8.682;2023-07-22T06:46:54;11.50;;;8.70;;
11024;SDS011;22890;51.820;8.682;2023-07-22T06:49:21;13.80;;;8.47;;
11024;SDS011;22890;51.820;8.682;2023-07-22T06:51:48;12.33;;;8.47;;
11024;SDS011;22890;51.820;8.682;2023-07-22T06:54:15;14.93;;;9.37;;
11024;SDS011;22890;51.820;8.682;2023-07-22T06:56:41;14.10;;;8.60;;
11024;SDS011;22890;51.820;8.682;2023-07-22T06:59:08;13.97;;;8.33;;
11024;SDS011;22890;51.820;8.682;2023-07-22T07:01:35;14.73;;;9.30;;
11024;SDS011;22890;51.820;8.682;2023-07-22T07:04:02;16.17;;;8.70;;
11024;SDS011;22890;51.820;8.682;2023-07-22T07:06:28;15.13;;;10.03;;
11024;SDS011;22890;51.820;8.682;2023-07-22T07:08:59;20.13;;;10.10;;
11024;SDS011;22890;51.820;8.682;2023-07-22T07:11:29;16.53;;;9.23;;
11024;SDS011;22890;51.820;8.682;2023-07-22T07:13:56;19.17;;;10.17;;
11024;SDS011;22890;51.820;8.682;2023-07-22T07:16:28;13.40;;;8.93;;
11024;SDS011;22890;51.820;8.682;2023-07-22T07:18:58;15.07;;;9.83;;
11024;SDS011;22890;51.820;8.682;2023-07-22T07:21:26;12.30;;;9.03;;
11024;SDS011;22890;51.820;8.682;2023-07-22T07:23:54;22.50;;;10.30;;
11024;SDS011;22890;51.820;8.682;2023-07-22T07:26:21;13.30;;;8.17;;
11024;SDS011;22890;51.820;8.682;2023-07-22T07:28:48;15.17;;;8.90;;
11024;SDS011;22890;51.820;8.682;2023-07-22T07:31:18;14.80;;;9.23;;
11024;SDS011;22890;51.820;8.682;2023-07-22T07:33:47;17.87;;;9.30;;
11024;SDS011;22890;51.820;8.682;2023-07-22T07:36:14;13.53;;;8.73;;
11024;SDS011;22890;51.820;8.682;2023-07-22T07:38:41;15.50;;;9.30;;
11024;SDS011;22890;51.820;8.682;2023-07-22T07:41:10;13.87;;;9.53;;
11024;SDS011;22890;51.820;8.682;2023-07-22T07:43:41;16.87;;;9.53;;
11024;SDS011;22890;51.820;8.682;2023-07-22T07:48:53;17.73;;;9.73;;
11024;SDS011;22890;51.820;8.682;2023-07-22T07:51:23;14.23;;;9.33;;
11024;SDS011;22890;51.820;8.682;2023-07-22T07:53:51;13.90;;;10.17;;
11024;SDS011;22890;51.820;8.682;2023-07-22T07:56:18;13.07;;;9.73;;
11024;SDS011;22890;51.820;8.682;2023-07-22T07:58:46;15.03;;;10.43;;
11024;SDS011;22890;51.820;8.682;2023-07-22T08:01:13;16.60;;;10.70;;
11024;SDS011;22890;51.820;8.682;2023-07-22T08:03:41;16.10;;;10.87;;
11024;SDS011;22890;51.820;8.682;2023-07-22T08:06:08;17.57;;;9.77;;
11024;SDS011;22890;51.820;8.682;2023-07-22T08:08:36;18.47;;;9.93;;
11024;SDS011;22890;51.820;8.682;2023-07-22T08:11:04;14.53;;;9.70;;
11024;SDS011;22890;51.820;8.682;2023-07-22T08:13:33;13.40;;;9.77;;
11024;SDS011;22890;51.820;8.682;2023-07-22T08:16:02;15.07;;;9.23;;
11024;SDS011;22890;51.820;8.682;2023-07-22T08:18:30;15.90;;;9.87;;
11024;SDS011;22890;51.820;8.682;2023-07-22T08:20:58;16.13;;;9.73;;
11024;SDS011;22890;51.820;8.682;2023-07-22T08:23:25;12.53;;;9.27;;
11024;SDS011;22890;51.820;8.682;2023-07-22T08:25:52;15.90;;;9.23;;
11024;SDS011;22890;51.820;8.682;2023-07-22T08:28:18;14.13;;;9.30;;
11024;SDS011;22890;51.820;8.682;2023-07-22T08:30:45;13.30;;;9.33;;
11024;SDS011;22890;51.820;8.682;2023-07-22T08:33:14;14.27;;;9.70;;
11024;SDS011;22890;51.820;8.682;2023-07-22T08:35:52;13.20;;;9.43;;
11024;SDS011;22890;51.820;8.682;2023-07-22T08:38:19;15.13;;;9.17;;
11024;SDS011;22890;51.820;8.682;2023-07-22T08:40:48;14.13;;;9.23;;
11024;SDS011;22890;51.820;8.682;2023-07-22T08:43:19;14.37;;;9.20;;
11024;SDS011;22890;51.820;8.682;2023-07-22T08:45:47;14.87;;;8.97;;
11024;SDS011;22890;51.820;8.682;2023-07-22T08:48:16;13.07;;;8.37;;
11024;SDS011;22890;51.820;8.682;2023-07-22T08:53:12;13.70;;;8.23;;
11024;SDS011;22890;51.820;8.682;2023-07-22T08:55:39;10.63;;;7.83;;
11024;SDS011;22890;51.820;8.682;2023-07-22T08:58:09;13.10;;;8.90;;
11024;SDS011;22890;51.820;8.682;2023-07-22T09:00:37;11.50;;;8.27;;
11024;SDS011;22890;51.820;8.682;2023-07-22T09:03:05;11.93;;;8.03;;
11024;SDS011;22890;51.820;8.682;2023-07-22T09:05:33;11.13;;;7.87;;
11024;SDS011;22890;51.820;8.682;2023-07-22T09:08:01;10.13;;;7.90;;
11024;SDS011;22890;51.820;8.682;2023-07-22T09:10:29;11.23;;;7.90;;
11024;SDS011;22890;51.820;8.682;2023-07-22T09:12:56;13.00;;;7.67;;
11024;SDS011;22890;51.820;8.682;2023-07-22T09:15:24;12.70;;;7.67;;
11024;SDS011;22890;51.820;8.682;2023-07-22T09:17:51;8.70;;;7.57;;
11024;SDS011;22890;51.820;8.682;2023-07-22T09:20:18;10.87;;;8.30;;
11024;SDS011;22890;51.820;8.682;2023-07-22T09:22:47;8.80;;;7.13;;
11024;SDS011;22890;51.820;8.682;2023-07-22T09:25:28;10.27;;;7.60;;
11024;SDS011;22890;51.820;8.682;2023-07-22T09:27:56;11.33;;;7.57;;
11024;SDS011;22890;51.820;8.682;2023-07-22T09:30:30;12.47;;;7.97;;
11024;SDS011;22890;51.820;8.682;2023-07-22T09:33:02;11.10;;;7.53;;
11024;SDS011;22890;51.820;8.682;2023-07-22T09:35:51;12.20;;;7.70;;
11024;SDS011;22890;51.820;8.682;2023-07-22T09:38:24;9.80;;;6.60;;
11024;SDS011;22890;51.820;8.682;2023-07-22T09:40:52;10.97;;;8.60;;
11024;SDS011;22890;51.820;8.682;2023-07-22T09:43:19;12.87;;;7.60;;
11024;SDS011;22890;51.820;8.682;2023-07-22T09:45:48;10.40;;;6.97;;
11024;SDS011;22890;51.820;8.682;2023-07-22T09:48:15;9.87;;;7.17;;
11024;SDS011;22890;51.820;8.682;2023-07-22T09:50:43;11.83;;;7.73;;
11024;SDS011;22890;51.820;8.682;2023-07-22T09:53:09;11.80;;;7.77;;
11024;SDS011;22890;51.820;8.682;2023-07-22T09:55:42;9.90;;;7.30;;
11024;SDS011;22890;51.820;8.682;2023-07-22T09:58:10;8.77;;;6.77;;
11024;SDS011;22890;51.820;8.682;2023-07-22T10:00:40;11.50;;;6.90;;
11024;SDS011;22890;51.820;8.682;2023-07-22T10:03:13;10.93;;;6.77;;
11024;SDS011;22890;51.820;8.682;2023-07-22T10:05:42;9.30;;;7.13;;
11024;SDS011;22890;51.820;8.682;2023-07-22T10:08:12;11.00;;;8.27;;
11024;SDS011;22890;51.820;8.682;2023-07-22T10:10:41;11.03;;;8.00;;
11024;SDS011;22890;51.820;8.682;2023-07-22T10:13:09;12.03;;;6.93;;
11024;SDS011;22890;51.820;8.682;2023-07-22T10:15:37;9.43;;;7.63;;
11024;SDS011;22890;51.820;8.682;2023-07-22T10:18:05;12.17;;;7.77;;
11024;SDS011;22890;51.820;8.682;2023-07-22T10:20:31;8.93;;;7.00;;
11024;SDS011;22890;51.820;8.682;2023-07-22T10:23:03;11.57;;;7.77;;
11024;SDS011;22890;51.820;8.682;2023-07-22T10:25:30;8.13;;;6.83;;
11024;SDS011;22890;51.820;8.682;2023-07-22T10:27:57;15.63;;;8.33;;
11024;SDS011;22890;51.820;8.682;2023-07-22T10:30:24;8.93;;;6.50;;
11024;SDS011;22890;51.820;8.682;2023-07-22T10:32:51;8.40;;;6.27;;
11024;SDS011;22890;51.820;8.682;2023-07-22T10:40:34;9.43;;;6.80;;
11024;SDS011;22890;51.820;8.682;2023-07-22T10:43:15;8.30;;;5.93;;
11024;SDS011;22890;51.820;8.682;2023-07-22T10:45:53;7.20;;;5.77;;
11024;SDS011;22890;51.820;8.682;2023-07-22T10:48:28;8.93;;;6.77;;
11024;SDS011;22890;51.820;8.682;2023-07-22T10:51:13;8.17;;;5.97;;
11024;SDS011;22890;51.820;8.682;2023-07-22T10:53:50;6.47;;;5.60;;
11024;SDS011;22890;51.820;8.682;2023-07-22T10:56:20;8.97;;;5.37;;
11024;SDS011;22890;51.820;8.682;2023-07-22T11:11:54;5.53;;;5.03;;
11024;SDS011;22890;51.820;8.682;2023-07-22T11:14:26;8.47;;;5.50;;
11024;SDS011;22890;51.820;8.682;2023-07-22T11:16:56;7.27;;;4.97;;
11024;SDS011;22890;51.820;8.682;2023-07-22T11:19:24;4.97;;;4.47;;
11024;SDS011;22890;51.820;8.682;2023-07-22T11:21:51;6.13;;;4.93;;
11024;SDS011;22890;51.820;8.682;2023-07-22T11:24:20;8.63;;;4.80;;
11024;SDS011;22890;51.820;8.682;2023-07-22T11:26:48;5.60;;;4.30;;
11024;SDS011;22890;51.820;8.682;2023-07-22T11:29:16;6.10;;;4.20;;
11024;SDS011;22890;51.820;8.682;2023-07-22T11:31:44;5.23;;;4.27;;
11024;SDS011;22890;51.820;8.682;2023-07-22T11:34:13;5.20;;;4.43;;
11024;SDS011;22890;51.820;8.682;2023-07-22T11:36:41;4.53;;;4.10;;
11024;SDS011;22890;51.820;8.682;2023-07-22T11:39:12;12.00;;;4.63;;
11024;SDS011;22890;51.820;8.682;2023-07-22T11:41:41;5.47;;;4.30;;
11024;SDS011;22890;51.820;8.682;2023-07-22T11:44:09;6.80;;;4.60;;
11024;SDS011;22890;51.820;8.682;2023-07-22T11:46:52;5.23;;;4.57;;
11024;SDS011;22890;51.820;8.682;2023-07-22T11:49:29;4.40;;;4.00;;
11024;SDS011;22890;51.820;8.682;2023-07-22T11:51:58;5.57;;;4.40;;
11024;SDS011;22890;51.820;8.682;2023-07-22T11:54:26;3.80;;;3.47;;
11024;SDS011;22890;51.820;8.682;2023-07-22T11:56:55;4.13;;;3.73;;
11024;SDS011;22890;51.820;8.682;2023-07-22T11:59:32;4.33;;;3.93;;
11024;SDS011;22890;51.820;8.682;2023-07-22T12:02:00;4.63;;;4.20;;
11024;SDS011;22890;51.820;8.682;2023-07-22T12:04:28;4.87;;;4.07;;
11024;SDS011;22890;51.820;8.682;2023-07-22T12:06:54;4.70;;;4.20;;
11024;SDS011;22890;51.820;8.682;2023-07-22T12:09:22;5.33;;;3.90;;
11024;SDS011;22890;51.820;8.682;2023-07-22T12:11:54;5.03;;;3.50;;
11024;SDS011;22890;51.820;8.682;2023-07-22T12:14:23;6.00;;;4.07;;
11024;SDS011;22890;51.820;8.682;2023-07-22T12:16:52;4.70;;;3.60;;
11024;SDS011;22890;51.820;8.682;2023-07-22T12:19:23;4.07;;;3.67;;
11024;SDS011;22890;51.820;8.682;2023-07-22T12:21:50;4.33;;;3.20;;
11024;SDS011;22890;51.820;8.682;2023-07-22T12:24:16;5.40;;;3.30;;
11024;SDS011;22890;51.820;8.682;2023-07-22T12:26:43;3.60;;;3.30;;
11024;SDS011;22890;51.820;8.682;2023-07-22T12:29:10;4.43;;;3.60;;
11024;SDS011;22890;51.820;8.682;2023-07-22T12:31:37;5.27;;;4.17;;
11024;SDS011;22890;51.820;8.682;2023-07-22T12:34:04;3.93;;;3.53;;
11024;SDS011;22890;51.820;8.682;2023-07-22T12:36:30;5.03;;;3.37;;
11024;SDS011;22890;51.820;8.682;2023-07-22T12:38:57;3.67;;;3.37;;
11024;SDS011;22890;51.820;8.682;2023-07-22T12:41:24;4.03;;;3.67;;
11024;SDS011;22890;51.820;8.682;2023-07-22T12:43:51;4.43;;;4.00;;
11024;SDS011;22890;51.820;8.682;2023-07-22T12:46:18;3.90;;;3.50;;
11024;SDS011;22890;51.820;8.682;2023-07-22T12:48:45;5.33;;;4.10;;
11024;SDS011;22890;51.820;8.682;2023-07-22T12:51:12;4.10;;;3.70;;
11024;SDS011;22890;51.820;8.682;2023-07-22T12:53:39;4.97;;;3.50;;
11024;SDS011;22890;51.820;8.682;2023-07-22T12:56:06;3.80;;;3.40;;
11024;SDS011;22890;51.820;8.682;2023-07-22T12:58:33;4.37;;;3.43;;
11024;SDS011;22890;51.820;8.682;2023-07-22T13:01:00;4.67;;;3.40;;
11024;SDS011;22890;51.820;8.682;2023-07-22T13:03:26;4.67;;;3.50;;
11024;SDS011;22890;51.820;8.682;2023-07-22T13:05:53;4.37;;;3.00;;
11024;SDS011;22890;51.820;8.682;2023-07-22T13:08:20;4.93;;;3.90;;
11024;SDS011;22890;51.820;8.682;2023-07-22T13:10:46;6.27;;;3.90;;
11024;SDS011;22890;51.820;8.682;2023-07-22T13:13:13;5.00;;;3.47;;
11024;SDS011;22890;51.820;8.682;2023-07-22T13:15:40;3.97;;;3.60;;
11024;SDS011;22890;51.820;8.682;2023-07-22T13:18:07;8.73;;;3.50;;
11024;SDS011;22890;51.820;8.682;2023-07-22T13:20:33;3.90;;;3.57;;
11024;SDS011;22890;51.820;8.682;2023-07-22T13:23:00;4.00;;;3.10;;
11024;SDS011;22890;51.820;8.682;2023-07-22T13:25:27;5.83;;;3.90;;
11024;SDS011;22890;51.820;8.682;2023-07-22T13:27:54;5.47;;;3.40;;
11024;SDS011;22890;51.820;8.682;2023-07-22T13:30:21;4.40;;;3.17;;
11024;SDS011;22890;51.820;8.682;2023-07-22T13:32:48;3.83;;;3.27;;
11024;SDS011;22890;51.820;8.682;2023-07-22T13:35:14;3.97;;;3.33;;
11024;SDS011;22890;51.820;8.682;2023-07-22T13:37:41;3.40;;;3.10;;
11024;SDS011;22890;51.820;8.682;2023-07-22T13:40:08;4.53;;;3.27;;
11024;SDS011;22890;51.820;8.682;2023-07-22T13:42:37;4.33;;;3.60;;
11024;SDS011;22890;51.820;8.682;2023-07-22T13:45:04;3.73;;;3.20;;
11024;SDS011;22890;51.820;8.682;2023-07-22T13:47:32;3.33;;;3.00;;
11024;SDS011;22890;51.820;8.682;2023-07-22T13:49:58;4.53;;;3.33;;
11024;SDS011;22890;51.820;8.682;2023-07-22T13:52:26;6.20;;;5.70;;
11024;SDS011;22890;51.820;8.682;2023-07-22T13:54:52;4.70;;;3.17;;
11024;SDS011;22890;51.820;8.682;2023-07-22T13:57:19;4.37;;;3.60;;
11024;SDS011;22890;51.820;8.682;2023-07-22T13:59:46;5.00;;;3.40;;
11024;SDS011;22890;51.820;8.682;2023-07-22T14:02:13;4.43;;;3.23;;
11024;SDS011;22890;51.820;8.682;2023-07-22T14:04:40;4.50;;;3.10;;
11024;SDS011;22890;51.820;8.682;2023-07-22T14:07:07;3.87;;;3.07;;
11024;SDS011;22890;51.820;8.682;2023-07-22T14:09:34;3.40;;;2.57;;
11024;SDS011;22890;51.820;8.682;2023-07-22T14:12:01;5.00;;;2.93;;
11024;SDS011;22890;51.820;8.682;2023-07-22T14:14:28;3.60;;;3.30;;
11024;SDS011;22890;51.820;8.682;2023-07-22T14:16:55;5.57;;;3.73;;
11024;SDS011;22890;51.820;8.682;2023-07-22T14:19:23;3.27;;;2.90;;
11024;SDS011;22890;51.820;8.682;2023-07-22T14:21:50;3.33;;;3.03;;
11024;SDS011;22890;51.820;8.682;2023-07-22T14:24:17;3.53;;;3.10;;
11024;SDS011;22890;51.820;8.682;2023-07-22T14:26:44;3.70;;;3.20;;
11024;SDS011;22890;51.820;8.682;2023-07-22T14:29:10;4.47;;;2.97;;
11024;SDS011;22890;51.820;8.682;2023-07-22T14:31:37;3.37;;;3.07;;
11024;SDS011;22890;51.820;8.682;2023-07-22T14:34:04;3.10;;;2.80;;
11024;SDS011;22890;51.820;8.682;2023-07-22T14:36:30;3.80;;;2.90;;
11024;SDS011;22890;51.820;8.682;2023-07-22T14:38:57;3.17;;;2.83;;
11024;SDS011;22890;51.820;8.682;2023-07-22T14:41:24;3.73;;;3.07;;
11024;SDS011;22890;51.820;8.682;2023-07-22T14:43:51;3.10;;;2.80;;
11024;SDS011;22890;51.820;8.682;2023-07-22T14:46:18;4.20;;;2.90;;
11024;SDS011;22890;51.820;8.682;2023-07-22T14:48:45;3.60;;;3.13;;
11024;SDS011;22890;51.820;8.682;2023-07-22T14:51:12;3.20;;;2.90;;
11024;SDS011;22890;51.820;8.682;2023-07-22T14:53:39;6.43;;;3.13;;
11024;SDS011;22890;51.820;8.682;2023-07-22T14:56:06;3.53;;;2.80;;
11024;SDS011;22890;51.820;8.682;2023-07-22T14:58:33;4.00;;;3.03;;
11024;SDS011;22890;51.820;8.682;2023-07-22T15:01:00;3.30;;;3.00;;
11024;SDS011;22890;51.820;8.682;2023-07-22T15:03:29;4.20;;;3.30;;
11024;SDS011;22890;51.820;8.682;2023-07-22T15:05:56;4.43;;;2.53;;